Time;durP1;ratioP1;P1;durP2;ratioP2;P2;SDS_P1;SDS_P2;PMS_P1;PMS_P2;Temp;Humidity;BMP_temperature;BMP_pressure;BME280_temperature;BME280_humidity;BME280_pressure;Samples;Min_cycle;Max_cycle;Signal;HPM_P1;HPM_P2
2022/01/14 00:01:55;;;;;;;16.50;6.30;;;;;;;13.63;44.14;102859.78;4428525;32;20081;-69
2022/01/14 00:04:21;;;;;;;16.42;6.68;;;;;;;13.58;44.16;102861.00;4430850;32;20063;-70
2022/01/14 00:06:47;;;;;;;20.80;6.65;;;;;;;13.47;44.37;102865.06;4432556;32;20064;-70
2022/01/14 00:09:14;;;;;;;17.15;5.78;;;;;;;13.37;44.86;102866.69;4434015;32;20473;-70
2022/01/14 00:11:46;;;;;;;17.15;6.20;;;;;;;13.40;44.84;102868.72;4432904;32;20029;-70
2022/01/14 00:16:52;;;;;;;15.32;5.40;;;;;;;13.88;44.49;102864.13;3976138;32;15022117;-70
2022/01/14 00:19:18;;;;;;;16.12;6.60;;;;;;;13.88;44.49;102864.13;4429398;32;20075;-69
2022/01/14 00:21:45;;;;;;;19.92;6.53;;;;;;;13.17;44.99;102859.88;4428759;32;20120;-69
2022/01/14 00:35:05;;;;;;;18.55;6.28;;;;;;;13.46;44.00;102841.62;3952433;32;15722441;-69
2022/01/14 00:37:30;;;;;;;23.05;6.65;;;;;;;13.46;44.00;102841.62;4428498;32;20073;-69
2022/01/14 00:39:56;;;;;;;22.48;7.15;;;;;;;12.99;44.91;102842.09;4431271;32;20092;-69
2022/01/14 00:42:22;;;;;;;16.12;6.70;;;;;;;13.12;44.75;102840.47;4430563;32;20497;-69
2022/01/14 00:44:48;;;;;;;17.85;7.70;;;;;;;13.04;45.10;102838.84;4430245;32;20517;-70
2022/01/14 00:47:14;;;;;;;16.75;7.47;;;;;;;13.20;44.84;102839.22;4429143;32;20037;-68
2022/01/14 00:49:39;;;;;;;22.62;7.78;;;;;;;13.00;44.76;102843.72;4428496;32;20486;-69
2022/01/14 00:52:05;;;;;;;18.92;6.90;;;;;;;12.96;44.94;102845.72;4428857;32;20076;-69
2022/01/14 00:54:31;;;;;;;20.25;7.45;;;;;;;12.97;45.07;102849.31;4427079;32;20030;-69
2022/01/14 00:59:14;;;;;;;22.55;8.35;;;;;;;12.81;45.14;102846.09;4429228;32;20067;-69
2022/01/14 00:59:43;;;;;;;;;;;;;;;12.79;45.31;102843.69;4429903;32;20085;-69
2022/01/14 01:02:10;;;;;;;16.20;7.35;;;;;;;13.25;44.43;102847.31;4426796;32;20088;-69
2022/01/14 01:04:38;;;;;;;19.30;8.15;;;;;;;12.81;45.02;102855.41;4430120;32;20037;-69
2022/01/14 01:07:07;;;;;;;22.52;8.05;;;;;;;12.89;45.08;102854.16;4428704;32;20153;-70
2022/01/14 01:09:34;;;;;;;24.12;7.70;;;;;;;12.90;44.94;102852.97;4429390;32;20404;-70
2022/01/14 01:12:12;;;;;;;24.08;8.48;;;;;;;12.61;45.29;102856.97;4430587;32;20041;-70
2022/01/14 01:14:45;;;;;;;19.35;7.25;;;;;;;12.70;45.58;102857.41;4424598;32;20053;-70
2022/01/14 01:17:12;;;;;;;19.02;8.02;;;;;;;12.65;45.61;102855.00;4427357;32;20306;-70
2022/01/14 01:19:38;;;;;;;23.20;7.87;;;;;;;12.49;45.80;102854.53;4426843;32;20411;-70
2022/01/14 01:22:04;;;;;;;20.15;8.15;;;;;;;12.25;46.14;102858.13;4426768;32;20082;-70
2022/01/14 01:24:30;;;;;;;16.77;7.53;;;;;;;12.29;45.97;102855.31;4429186;32;20042;-70
2022/01/14 01:26:56;;;;;;;13.90;6.50;;;;;;;12.21;45.88;102859.34;4426925;32;20096;-70
2022/01/14 01:29:43;;;;;;;18.77;6.87;;;;;;;12.27;45.52;102866.22;4429636;32;20116;-70
2022/01/14 01:32:08;;;;;;;;;;;;;;;12.07;45.98;102877.03;4430340;32;20064;-70
2022/01/14 01:34:35;;;;;;;15.05;6.50;;;;;;;12.53;45.27;102880.78;4428257;32;19952;-70
2022/01/14 01:37:03;;;;;;;14.40;6.07;;;;;;;12.12;45.85;102864.53;4414598;32;20100;-70
2022/01/14 01:39:34;;;;;;;20.48;7.35;;;;;;;12.20;45.87;102872.62;4431359;32;20077;-70
2022/01/14 01:42:05;;;;;;;13.93;5.95;;;;;;;12.07;46.04;102865.72;4430643;32;20364;-70
2022/01/14 01:44:32;;;;;;;17.25;6.72;;;;;;;12.14;45.72;102865.75;4426282;32;20413;-70
2022/01/14 01:46:58;;;;;;;15.45;5.90;;;;;;;11.83;46.21;102863.63;4415289;32;20086;-70
2022/01/14 01:49:28;;;;;;;18.55;5.97;;;;;;;11.85;46.13;102870.47;4415522;32;20519;-70
2022/01/14 01:51:54;;;;;;;16.17;6.53;;;;;;;11.89;46.25;102871.31;4417335;32;20037;-70
2022/01/14 01:54:21;;;;;;;20.45;6.43;;;;;;;11.76;46.35;102858.72;4420268;32;20580;-70
2022/01/14 01:56:49;;;;;;;19.33;6.45;;;;;;;11.84;46.24;102868.03;4420992;32;20077;-70
2022/01/14 01:59:16;;;;;;;17.60;5.90;;;;;;;11.62;46.54;102866.31;4418143;32;20108;-70
2022/01/14 02:01:42;;;;;;;15.40;5.82;;;;;;;11.69;46.57;102867.16;4417508;32;20120;-69
2022/01/14 02:04:08;;;;;;;16.17;6.43;;;;;;;11.55;46.82;102858.62;4403871;32;20045;-70
2022/01/14 02:06:37;;;;;;;13.15;5.53;;;;;;;11.38;46.82;102864.13;4420175;32;20064;-69
2022/01/14 02:09:04;;;;;;;15.82;6.57;;;;;;;11.49;46.75;102856.56;4420158;32;20331;-69
2022/01/14 02:11:30;;;;;;;14.48;6.35;;;;;;;11.48;47.10;102857.75;4417215;32;20033;-70
2022/01/14 02:13:59;;;;;;;12.07;5.62;;;;;;;11.24;47.26;102853.59;4417600;32;20125;-69
2022/01/14 02:19:17;;;;;;;17.35;6.95;;;;;;;11.31;47.10;102858.44;4417375;32;20313;-69
2022/01/14 02:22:22;;;;;;;16.30;6.62;;;;;;;11.32;47.09;102846.00;4417675;32;20360;-70
2022/01/14 02:27:16;;;;;;;19.87;6.45;;;;;;;11.61;46.54;102842.12;3978715;32;15024677;-70
2022/01/14 02:29:42;;;;;;;15.18;6.00;;;;;;;11.61;46.54;102842.12;4429481;32;20434;-69
2022/01/14 02:32:08;;;;;;;19.08;6.18;;;;;;;11.14;47.41;102836.59;4431097;32;20494;-68
2022/01/14 02:34:36;;;;;;;12.88;5.30;;;;;;;11.06;47.54;102846.19;4427810;32;20072;-69
2022/01/14 02:37:04;;;;;;;14.45;6.22;;;;;;;11.24;47.08;102845.12;4430843;32;20447;-69
2022/01/14 02:39:30;;;;;;;14.20;6.55;;;;;;;11.18;46.98;102857.97;4426982;32;20084;-69
2022/01/14 02:41:56;;;;;;;19.25;5.97;;;;;;;11.19;46.96;102845.50;4425440;32;20471;-69
2022/01/14 02:44:25;;;;;;;21.27;7.97;;;;;;;10.76;47.57;102852.00;4430075;32;20073;-69
2022/01/14 02:46:55;;;;;;;18.60;6.50;;;;;;;11.15;47.21;102853.13;4426964;32;20460;-69
2022/01/14 02:49:26;;;;;;;12.25;6.25;;;;;;;11.22;47.12;102844.72;4426069;32;20084;-69
2022/01/14 02:51:52;;;;;;;21.77;6.82;;;;;;;11.13;47.37;102837.78;4429553;32;20546;-69
2022/01/14 02:54:24;;;;;;;18.17;6.93;;;;;;;10.68;48.18;102844.66;4431378;32;20087;-69
2022/01/14 02:56:53;;;;;;;20.90;6.65;;;;;;;10.61;48.13;102844.59;4428011;32;20596;-69
2022/01/14 02:59:20;;;;;;;18.70;6.47;;;;;;;10.76;47.81;102834.28;4430167;32;20375;-68
2022/01/14 03:01:48;;;;;;;20.17;6.90;;;;;;;10.82;47.64;102833.53;4431948;32;20109;-69
2022/01/14 03:04:16;;;;;;;24.67;6.50;;;;;;;10.97;47.25;102832.44;4432481;32;20073;-70
2022/01/14 03:06:42;;;;;;;18.80;6.70;;;;;;;10.98;47.20;102844.53;4428282;32;20088;-70
2022/01/14 03:09:09;;;;;;;15.73;6.50;;;;;;;10.86;47.37;102839.19;4425617;32;20636;-71
2022/01/14 03:11:39;;;;;;;12.80;5.70;;;;;;;10.90;47.34;102834.41;4424786;32;20046;-71
2022/01/14 03:14:05;;;;;;;11.32;5.82;;;;;;;10.96;47.21;102841.28;4428548;32;20034;-70
2022/01/14 03:16:39;;;;;;;17.30;6.47;;;;;;;10.76;47.50;102831.44;4431727;32;20053;-70
2022/01/14 03:19:08;;;;;;;13.85;5.75;;;;;;;10.91;47.11;102833.19;4429287;32;20413;-70
2022/01/14 03:21:40;;;;;;;15.07;6.87;;;;;;;10.77;47.58;102825.44;4427768;32;20086;-70
2022/01/14 03:26:52;;;;;;;19.58;6.78;;;;;;;11.05;47.11;102831.28;3981175;32;15024017;-70
2022/01/14 03:29:19;;;;;;;20.17;6.60;;;;;;;11.05;47.11;102831.28;4431791;32;20123;-70
2022/01/14 03:31:46;;;;;;;15.50;6.70;;;;;;;10.72;47.32;102817.38;4430205;32;20602;-70
2022/01/14 03:34:13;;;;;;;14.10;6.50;;;;;;;10.63;47.59;102816.06;4428691;32;20386;-70
2022/01/14 03:36:38;;;;;;;15.85;6.72;;;;;;;10.58;47.29;102810.81;4431054;32;20424;-70
2022/01/14 03:39:05;;;;;;;23.33;7.18;;;;;;;10.57;47.39;102809.97;4434867;32;20332;-70
2022/01/14 03:41:30;;;;;;;18.05;7.40;;;;;;;10.54;47.23;102801.50;4429380;32;20056;-70
2022/01/14 03:43:56;;;;;;;21.35;7.12;;;;;;;10.40;47.26;102796.53;4431877;32;20429;-70
2022/01/14 03:46:22;;;;;;;22.23;7.50;;;;;;;10.41;47.37;102806.63;4427479;32;20060;-70
2022/01/14 03:48:47;;;;;;;18.30;7.47;;;;;;;10.41;47.30;102811.44;4425746;32;20140;-70
2022/01/14 03:51:13;;;;;;;15.93;7.10;;;;;;;10.22;47.77;102800.38;4428962;32;20130;-70
2022/01/14 03:53:39;;;;;;;18.45;7.78;;;;;;;10.17;47.73;102810.00;4429884;32;20099;-70
2022/01/14 03:56:05;;;;;;;19.20;7.60;;;;;;;10.20;47.74;102795.16;4429400;32;20096;-70
2022/01/14 03:58:31;;;;;;;16.23;6.70;;;;;;;10.01;47.81;102803.75;4430527;32;20033;-70
2022/01/14 04:00:57;;;;;;;15.65;6.72;;;;;;;10.01;47.85;102793.28;4426907;32;20073;-70
2022/01/14 04:03:22;;;;;;;15.40;6.95;;;;;;;10.09;47.84;102785.78;4425424;32;20034;-70
2022/01/14 04:05:48;;;;;;;17.50;7.40;;;;;;;10.13;47.57;102788.63;4427760;32;20099;-70
2022/01/14 04:08:13;;;;;;;18.60;8.10;;;;;;;10.07;47.97;102791.78;4429833;32;20095;-70
2022/01/14 04:10:39;;;;;;;19.92;6.70;;;;;;;10.18;47.92;102791.12;4430374;32;20038;-70
2022/01/14 04:13:13;;;;;;;13.48;6.55;;;;;;;10.15;48.00;102786.25;4428481;32;20068;-70
2022/01/14 04:15:43;;;;;;;20.08;7.43;;;;;;;10.19;48.23;102792.72;4429161;32;20450;-70
2022/01/14 04:20:49;;;;;;;14.65;5.97;;;;;;;10.46;47.68;102789.34;3978891;32;15051293;-70
2022/01/14 04:23:18;;;;;;;17.75;6.10;;;;;;;10.43;48.20;102787.31;4435008;32;20055;-70
2022/01/14 04:25:47;;;;;;;14.82;5.57;;;;;;;10.02;48.93;102794.12;4434290;32;20065;-70
2022/01/14 04:28:14;;;;;;;12.05;5.62;;;;;;;10.27;48.30;102792.41;4435539;32;20500;-70
2022/01/14 04:30:40;;;;;;;13.90;6.30;;;;;;;10.22;48.38;102784.31;4434308;32;20081;-70
2022/01/14 04:33:05;;;;;;;12.75;5.80;;;;;;;10.12;48.51;102773.75;4435897;32;20055;-70
2022/01/14 04:35:32;;;;;;;14.15;5.90;;;;;;;10.32;47.89;102779.97;4433111;32;20571;-70
2022/01/14 04:37:59;;;;;;;13.18;6.00;;;;;;;10.48;48.06;102767.28;4436086;32;20076;-70
2022/01/14 04:40:25;;;;;;;12.93;6.37;;;;;;;10.33;48.57;102761.87;4435127;32;20090;-70
2022/01/14 04:42:52;;;;;;;18.73;6.57;;;;;;;10.42;48.24;102753.94;4435579;32;20087;-70
2022/01/14 04:48:12;;;;;;;14.30;5.97;;;;;;;10.86;47.52;102755.47;3981625;32;15023095;-71
2022/01/14 04:50:39;;;;;;;13.80;6.12;;;;;;;10.86;47.52;102755.47;4435473;32;20037;-70
2022/01/14 04:53:08;;;;;;;13.82;5.90;;;;;;;10.32;48.41;102749.03;4437330;32;20454;-70
2022/01/14 04:55:34;;;;;;;12.73;5.55;;;;;;;10.38;48.60;102748.28;4435207;32;20100;-70
2022/01/14 04:57:59;;;;;;;15.45;5.90;;;;;;;10.02;48.98;102735.84;4435023;32;20486;-70
2022/01/14 05:00:28;;;;;;;17.83;7.15;;;;;;;10.12;48.64;102739.19;4435234;32;20088;-70
2022/01/14 05:02:54;;;;;;;16.90;7.10;;;;;;;10.31;48.41;102730.53;4434689;32;20041;-70
2022/01/14 05:05:23;;;;;;;17.37;6.00;;;;;;;10.28;48.33;102728.50;4434072;32;20097;-70
2022/01/14 05:07:50;;;;;;;15.48;6.35;;;;;;;10.46;48.25;102718.97;4433901;32;20038;-70
2022/01/14 05:10:25;;;;;;;23.35;7.57;;;;;;;10.44;48.23;102726.22;4433722;32;20044;-70
2022/01/14 05:12:51;;;;;;;15.03;7.07;;;;;;;10.41;48.44;102715.72;4435292;32;20103;-70
2022/01/14 05:15:18;;;;;;;16.87;6.82;;;;;;;10.31;48.74;102716.47;4436687;32;20063;-70
2022/01/14 05:17:45;;;;;;;19.92;6.82;;;;;;;10.37;48.75;102704.44;4436532;32;20045;-70
2022/01/14 05:20:12;;;;;;;15.65;7.05;;;;;;;10.43;48.40;102702.88;4435340;32;20041;-70
2022/01/14 05:22:38;;;;;;;20.25;7.47;;;;;;;10.45;48.54;102697.66;4435390;32;20063;-70
2022/01/14 05:25:06;;;;;;;20.37;6.95;;;;;;;10.23;48.62;102698.69;4433620;32;20060;-70
2022/01/14 05:27:35;;;;;;;14.43;5.60;;;;;;;10.09;48.70;102707.00;4435926;32;20081;-70
2022/01/14 05:30:04;;;;;;;14.13;6.50;;;;;;;10.29;48.69;102701.97;4433733;32;20481;-71
2022/01/14 05:32:30;;;;;;;12.75;6.00;;;;;;;10.51;48.19;102701.75;4433939;32;20067;-70
2022/01/14 05:34:56;;;;;;;15.52;6.95;;;;;;;10.37;48.15;102698.00;4431178;32;20304;-70
2022/01/14 05:37:22;;;;;;;16.85;6.80;;;;;;;10.44;48.05;102707.31;4437371;32;20453;-70
2022/01/14 05:39:49;;;;;;;18.00;7.43;;;;;;;10.35;48.29;102704.03;4436730;32;20107;-70
2022/01/14 05:42:15;;;;;;;16.25;6.12;;;;;;;10.45;48.15;102711.75;4434761;32;20073;-70
2022/01/14 05:44:41;;;;;;;17.67;8.15;;;;;;;10.45;48.07;102711.75;4434233;32;20077;-72
2022/01/14 05:47:07;;;;;;;18.10;7.72;;;;;;;10.42;48.05;102711.69;4432554;32;20156;-70
2022/01/14 05:49:33;;;;;;;23.55;7.30;;;;;;;10.43;48.19;102713.34;4436425;32;20060;-70
2022/01/14 05:51:59;;;;;;;18.95;7.53;;;;;;;10.34;48.39;102705.22;4432287;32;20059;-70
2022/01/14 05:54:24;;;;;;;16.48;7.45;;;;;;;10.16;48.77;102703.47;4430537;32;20777;-70
2022/01/14 05:56:50;;;;;;;17.87;7.95;;;;;;;9.92;48.87;102705.59;4434710;32;20431;-70
2022/01/14 05:59:16;;;;;;;20.77;8.48;;;;;;;9.88;48.80;102713.19;4427316;32;20490;-70
2022/01/14 06:01:43;;;;;;;23.67;7.87;;;;;;;9.95;48.41;102713.25;4426589;32;20459;-70
2022/01/14 06:04:09;;;;;;;15.90;7.85;;;;;;;9.85;48.66;102707.56;4423660;32;20431;-70
2022/01/14 06:06:35;;;;;;;16.73;7.35;;;;;;;9.82;48.92;102706.31;4421232;32;20053;-70
2022/01/14 06:09:02;;;;;;;19.10;7.82;;;;;;;10.08;48.27;102708.22;4423934;32;20073;-70
2022/01/14 06:11:28;;;;;;;21.08;7.62;;;;;;;9.89;48.93;102706.41;4424672;32;20077;-70
2022/01/14 06:13:54;;;;;;;17.80;7.68;;;;;;;9.73;49.12;102703.00;4423754;32;20033;-70
2022/01/14 06:16:20;;;;;;;19.83;7.70;;;;;;;9.71;49.03;102702.59;4424993;32;20524;-70
2022/01/14 06:18:46;;;;;;;17.77;8.07;;;;;;;9.64;49.31;102696.09;4424543;32;20037;-70
2022/01/14 06:21:14;;;;;;;18.87;7.80;;;;;;;9.89;48.81;102705.59;4423924;32;20419;-70
2022/01/14 06:23:39;;;;;;;28.90;8.60;;;;;;;9.97;48.80;102694.00;4425830;32;20118;-70
2022/01/14 06:26:06;;;;;;;18.65;7.82;;;;;;;9.86;48.95;102689.47;4423709;32;21090;-70
2022/01/14 06:28:32;;;;;;;19.50;7.53;;;;;;;9.84;49.14;102689.03;4423729;32;20097;-70
2022/01/14 06:30:57;;;;;;;16.33;7.45;;;;;;;9.94;48.93;102696.78;4424633;32;20716;-70
2022/01/14 06:33:23;;;;;;;20.83;7.35;;;;;;;9.91;48.83;102698.38;4420686;32;20037;-70
2022/01/14 06:35:50;;;;;;;14.87;6.68;;;;;;;10.03;48.43;102691.63;4416380;32;20064;-70
2022/01/14 06:38:18;;;;;;;22.05;7.43;;;;;;;10.07;48.45;102696.12;4424393;32;20105;-70
2022/01/14 06:40:46;;;;;;;19.58;7.22;;;;;;;10.30;48.01;102695.94;4421443;32;20427;-70
2022/01/14 06:43:14;;;;;;;17.27;7.80;;;;;;;9.97;48.85;102696.81;4425465;32;20689;-70
2022/01/14 06:45:40;;;;;;;26.40;8.70;;;;;;;10.14;48.82;102689.78;4425032;32;20722;-70
2022/01/14 06:48:06;;;;;;;19.15;8.73;;;;;;;10.13;48.84;102690.16;4421165;32;20058;-70
2022/01/14 06:50:33;;;;;;;29.08;11.35;;;;;;;10.01;48.99;102688.44;4423660;32;20077;-70
2022/01/14 06:52:59;;;;;;;28.25;11.07;;;;;;;9.98;49.07;102694.81;4423423;32;20084;-70
2022/01/14 06:55:25;;;;;;;26.40;11.40;;;;;;;9.93;48.66;102692.34;4423522;32;20375;-70
2022/01/14 06:57:51;;;;;;;22.13;9.65;;;;;;;9.87;48.71;102703.16;4424736;32;20080;-70
2022/01/14 07:00:19;;;;;;;21.77;9.73;;;;;;;10.06;48.43;102693.69;4423227;32;20085;-70
2022/01/14 07:02:45;;;;;;;23.23;10.90;;;;;;;10.08;48.55;102694.97;4422502;32;20517;-70
2022/01/14 07:05:12;;;;;;;22.33;10.85;;;;;;;10.06;48.70;102702.97;4425257;32;20061;-70
2022/01/14 07:07:38;;;;;;;29.30;15.35;;;;;;;10.08;48.76;102700.59;4423025;32;20083;-70
2022/01/14 07:10:06;;;;;;;28.25;12.15;;;;;;;9.99;48.71;102704.87;4418590;32;20029;-70
2022/01/14 07:12:36;;;;;;;26.70;11.98;;;;;;;10.18;48.92;102696.22;4423394;32;20049;-70
2022/01/14 07:15:05;;;;;;;28.77;11.65;;;;;;;10.31;48.70;102693.94;4422215;32;20057;-70
2022/01/14 07:17:31;;;;;;;21.37;11.75;;;;;;;10.26;48.43;102683.84;4423867;32;20049;-70
2022/01/14 07:20:00;;;;;;;26.52;11.20;;;;;;;10.13;48.62;102688.97;4423452;32;20106;-70
2022/01/14 07:22:26;;;;;;;24.00;11.90;;;;;;;10.03;48.45;102691.63;4422687;32;20080;-70
2022/01/14 07:24:52;;;;;;;26.35;11.80;;;;;;;10.03;48.45;102689.66;4422501;32;20102;-70
2022/01/14 07:27:18;;;;;;;40.08;18.10;;;;;;;9.88;48.89;102679.44;4421948;32;20081;-70
2022/01/14 07:29:43;;;;;;;37.53;15.65;;;;;;;9.76;48.89;102685.34;4420853;32;20041;-70
2022/01/14 07:32:09;;;;;;;43.13;17.98;;;;;;;9.79;48.60;102690.22;4420495;32;20085;-70
2022/01/14 07:34:35;;;;;;;38.47;16.75;;;;;;;9.86;48.54;102697.91;4421047;32;20073;-70
2022/01/14 07:37:01;;;;;;;36.38;17.12;;;;;;;9.90;48.55;102695.94;4420940;32;20104;-70
2022/01/14 07:39:27;;;;;;;47.28;17.62;;;;;;;9.90;48.52;102705.19;4421027;32;20442;-71
2022/01/14 07:41:54;;;;;;;39.95;18.33;;;;;;;9.90;48.33;102708.00;4420049;32;20044;-70
2022/01/14 07:44:21;;;;;;;42.25;19.17;;;;;;;9.92;48.90;102705.59;4416984;32;20297;-70
2022/01/14 07:46:48;;;;;;;57.85;19.55;;;;;;;10.02;48.58;102709.72;4413677;32;20147;-70
2022/01/14 07:49:14;;;;;;;36.83;14.55;;;;;;;9.90;48.74;102710.00;4418293;32;20427;-70
2022/01/14 07:51:40;;;;;;;38.65;15.20;;;;;;;9.89;48.67;102712.03;4409297;32;20077;-70
2022/01/14 07:54:07;;;;;;;29.98;12.60;;;;;;;9.85;48.75;102711.16;4415656;32;20230;-70
2022/01/14 07:56:35;;;;;;;33.08;12.20;;;;;;;9.87;48.58;102722.03;4418588;32;20045;-70
2022/01/14 07:59:01;;;;;;;26.27;11.80;;;;;;;9.97;48.38;102716.50;4411879;32;20073;-70
2022/01/14 08:01:27;;;;;;;33.90;12.80;;;;;;;9.89;48.42;102714.84;4415301;32;20916;-70
2022/01/14 08:03:53;;;;;;;33.67;13.52;;;;;;;9.96;48.21;102725.34;4412025;32;20080;-70
2022/01/14 08:06:22;;;;;;;28.70;13.25;;;;;;;9.93;48.49;102729.75;4413215;32;20128;-71
2022/01/14 08:08:47;;;;;;;30.10;13.25;;;;;;;9.89;48.62;102728.91;4413666;32;20433;-70
2022/01/14 08:11:13;;;;;;;25.83;13.07;;;;;;;9.95;48.43;102718.88;4414973;32;20062;-70
2022/01/14 08:13:39;;;;;;;37.75;14.43;;;;;;;9.86;48.64;102721.25;4413961;32;20089;-70
2022/01/14 08:16:04;;;;;;;28.87;12.55;;;;;;;9.83;48.23;102710.75;4411247;32;20061;-71
2022/01/14 08:18:30;;;;;;;32.42;13.62;;;;;;;9.87;48.54;102714.41;4415733;32;20030;-70
2022/01/14 08:20:56;;;;;;;42.03;15.82;;;;;;;9.92;48.48;102722.47;4414509;32;20155;-72
2022/01/14 08:23:41;;;;;;;35.90;13.60;;;;;;;10.04;48.08;102727.03;4416503;32;20095;-71
2022/01/14 08:26:06;;;;;;;34.10;13.27;;;;;;;10.03;48.24;102731.03;4414937;32;20481;-71
2022/01/14 08:28:32;;;;;;;38.75;13.88;;;;;;;10.05;48.11;102723.84;4413902;32;20509;-71
2022/01/14 08:30:58;;;;;;;28.95;13.18;;;;;;;10.00;47.96;102734.59;4415731;32;20443;-71
2022/01/14 08:33:24;;;;;;;34.40;13.45;;;;;;;9.93;48.08;102741.00;4405767;32;20085;-71
2022/01/14 08:36:09;;;;;;;30.35;13.30;;;;;;;9.89;47.97;102737.34;4411562;32;20601;-71
2022/01/14 08:38:34;;;;;;;33.53;13.55;;;;;;;10.13;47.83;102753.66;4407614;32;20057;-71
2022/01/14 08:41:00;;;;;;;38.45;13.55;;;;;;;10.04;47.91;102741.09;4411320;32;20087;-71
2022/01/14 08:43:26;;;;;;;38.15;13.70;;;;;;;10.09;47.71;102752.84;4411424;32;20061;-71
2022/01/14 08:45:52;;;;;;;32.80;12.57;;;;;;;10.12;47.79;102756.88;4406956;32;20403;-71
2022/01/14 08:48:18;;;;;;;29.02;13.07;;;;;;;10.17;47.81;102752.91;4414846;32;20499;-72
2022/01/14 08:50:45;;;;;;;32.47;13.45;;;;;;;10.23;47.75;102742.91;4411868;32;20107;-70
2022/01/14 08:53:13;;;;;;;30.73;13.75;;;;;;;9.86;47.91;102743.75;4410366;32;20469;-70
2022/01/14 08:55:40;;;;;;;29.35;14.05;;;;;;;10.34;47.79;102752.25;4413502;32;20500;-70
2022/01/14 08:58:06;;;;;;;31.48;15.25;;;;;;;10.25;47.79;102746.97;4412945;32;20077;-70
2022/01/14 09:00:33;;;;;;;34.75;14.95;;;;;;;10.31;47.98;102751.03;4411679;32;20077;-70
2022/01/14 09:03:01;;;;;;;41.22;15.90;;;;;;;10.34;47.83;102753.06;4412661;32;20069;-70
2022/01/14 09:05:27;;;;;;;38.92;16.83;;;;;;;10.39;47.43;102757.53;4412415;32;20116;-71
2022/01/14 09:07:54;;;;;;;33.92;13.23;;;;;;;10.36;47.28;102752.66;4411235;32;20144;-70
2022/01/14 09:10:20;;;;;;;38.17;14.52;;;;;;;10.70;47.12;102751.34;4411145;32;20123;-70
2022/01/14 09:12:46;;;;;;;30.00;14.05;;;;;;;10.44;47.22;102751.53;4412422;32;20360;-70
2022/01/14 09:15:12;;;;;;;33.88;14.32;;;;;;;10.36;47.50;102755.47;4412902;32;20098;-71
2022/01/14 09:17:40;;;;;;;29.08;13.07;;;;;;;10.41;47.22;102758.78;4410800;32;20090;-72
2022/01/14 09:20:08;;;;;;;28.48;12.70;;;;;;;10.40;47.24;102757.12;4414603;32;20104;-70
2022/01/14 09:22:35;;;;;;;36.35;13.40;;;;;;;10.72;46.88;102757.41;4411568;32;20463;-70
2022/01/14 09:25:04;;;;;;;24.85;13.05;;;;;;;10.63;47.16;102751.28;4411070;32;20073;-70
2022/01/14 09:27:30;;;;;;;34.45;13.62;;;;;;;10.78;46.86;102758.66;4414354;32;20349;-70
2022/01/14 09:29:58;;;;;;;32.65;13.35;;;;;;;10.82;46.88;102762.28;4412039;32;20096;-70
2022/01/14 09:32:25;;;;;;;25.90;11.95;;;;;;;11.12;46.64;102765.72;4411576;32;20715;-69
2022/01/14 09:34:51;;;;;;;30.75;11.98;;;;;;;11.24;46.93;102766.22;4416938;32;20077;-69
2022/01/14 09:37:17;;;;;;;30.20;12.63;;;;;;;11.58;46.20;102769.59;4415550;32;20099;-69
2022/01/14 09:39:43;;;;;;;31.17;12.10;;;;;;;11.66;45.92;102766.41;4415520;32;20110;-69
2022/01/14 09:42:11;;;;;;;40.58;14.40;;;;;;;11.95;45.44;102761.69;4415317;32;20097;-69
2022/01/14 09:44:37;;;;;;;34.03;14.32;;;;;;;12.69;44.41;102770.22;4415897;32;20037;-69
2022/01/14 09:47:04;;;;;;;37.35;13.15;;;;;;;12.77;43.35;102763.38;4418312;32;20073;-69
2022/01/14 09:49:30;;;;;;;27.33;12.37;;;;;;;13.32;42.94;102765.28;4414821;32;20905;-69
2022/01/14 09:51:56;;;;;;;30.05;12.77;;;;;;;13.61;42.24;102760.34;4414767;32;20053;-69
2022/01/14 09:54:23;;;;;;;31.27;13.48;;;;;;;13.72;41.06;102753.41;4418397;32;20108;-69
2022/01/14 09:56:48;;;;;;;29.50;13.70;;;;;;;14.20;41.16;102756.34;4415600;32;20077;-69
2022/01/14 09:59:16;;;;;;;26.77;11.90;;;;;;;14.54;40.45;102759.38;4416769;32;20079;-70
2022/01/14 10:01:45;;;;;;;25.00;12.45;;;;;;;14.74;39.28;102758.37;4416682;32;20057;-69
2022/01/14 10:04:17;;;;;;;32.65;14.13;;;;;;;15.40;38.64;102764.63;4414207;32;20057;-70
2022/01/14 10:09:24;;;;;;;24.55;12.15;;;;;;;16.83;36.55;102758.84;3989725;31;15015805;-70
2022/01/14 10:12:15;;;;;;;19.95;11.68;;;;;;;16.83;36.55;102758.84;4441347;32;20500;-71
2022/01/14 10:14:51;;;;;;;25.58;12.27;;;;;;;16.65;35.19;102752.66;4443175;32;20045;-70
2022/01/14 10:17:17;;;;;;;26.73;12.60;;;;;;;16.69;36.39;102752.63;4442648;32;20458;-71
2022/01/14 10:19:45;;;;;;;21.92;11.80;;;;;;;16.74;35.64;102752.91;4444935;32;21013;-71
2022/01/14 10:33:08;;;;;;;24.92;13.95;;;;;;;18.25;33.74;102749.00;3970293;32;15153956;-71
2022/01/14 10:35:43;;;;;;;24.42;14.32;;;;;;;18.25;33.74;102749.00;4424109;32;20033;-71
2022/01/14 10:38:11;;;;;;;29.55;13.00;;;;;;;18.14;33.49;102752.09;4423974;32;20119;-71
2022/01/14 10:40:43;;;;;;;29.60;13.40;;;;;;;17.99;34.10;102738.59;4427686;32;20103;-71
2022/01/14 10:43:15;;;;;;;29.00;12.70;;;;;;;18.36;33.50;102729.56;4424600;32;20516;-71
2022/01/14 10:45:43;;;;;;;22.73;12.55;;;;;;;18.66;33.47;102738.63;4423904;32;20112;-71
2022/01/14 10:48:12;;;;;;;23.75;12.50;;;;;;;18.77;33.31;102741.16;4422520;32;20073;-71
2022/01/14 10:50:52;;;;;;;22.05;12.07;;;;;;;19.11;32.68;102744.31;4420799;32;20154;-71
2022/01/14 10:56:13;;;;;;;28.85;14.32;;;;;;;20.34;30.73;102740.28;3946728;32;15722326;-71
2022/01/14 10:58:42;;;;;;;24.05;13.00;;;;;;;20.34;30.73;102744.28;4418651;32;20092;-71
2022/01/14 11:01:13;;;;;;;26.02;15.02;;;;;;;19.77;31.62;102742.41;4419695;32;20104;-71
2022/01/14 11:04:06;;;;;;;25.50;13.43;;;;;;;19.52;31.59;102735.84;4420484;32;20084;-71
2022/01/14 11:06:35;;;;;;;24.63;13.93;;;;;;;19.62;31.75;102729.81;4418948;32;20083;-71
2022/01/14 11:09:06;;;;;;;26.70;14.45;;;;;;;19.73;31.84;102715.22;4420527;32;20080;-71
2022/01/14 11:11:37;;;;;;;26.25;13.70;;;;;;;19.90;31.46;102718.75;4416352;32;20025;-71
2022/01/14 11:14:04;;;;;;;23.90;12.32;;;;;;;20.06;31.61;102721.53;4418400;32;20498;-71
2022/01/14 11:16:30;;;;;;;31.05;12.88;;;;;;;20.19;31.23;102713.78;4419436;32;20415;-71
2022/01/14 11:19:00;;;;;;;26.83;13.18;;;;;;;19.91;31.27;102712.56;4419730;32;20076;-71
2022/01/14 11:24:14;;;;;;;21.67;12.95;;;;;;;19.82;31.74;102706.75;4415276;32;20077;-71
2022/01/14 11:26:43;;;;;;;21.67;12.00;;;;;;;20.17;31.14;102708.50;4404700;32;20077;-72
2022/01/14 11:29:12;;;;;;;20.85;11.93;;;;;;;20.23;30.80;102709.53;4416685;32;20111;-71
2022/01/14 11:31:40;;;;;;;26.85;13.50;;;;;;;20.55;30.98;102712.13;4417018;32;20100;-71
2022/01/14 11:34:29;;;;;;;20.95;12.13;;;;;;;20.98;30.52;102709.41;4419329;32;20042;-71
2022/01/14 11:37:00;;;;;;;23.73;13.73;;;;;;;21.58;29.68;102705.09;4419048;32;20173;-71
2022/01/14 11:39:31;;;;;;;21.98;13.30;;;;;;;22.00;28.42;102708.34;4418382;32;20125;-72
2022/01/14 11:41:59;;;;;;;20.42;12.23;;;;;;;22.41;28.37;102713.63;4417021;32;20079;-71
2022/01/14 11:49:59;;;;;;;24.45;13.62;;;;;;;23.82;26.58;102708.09;3969914;32;15034216;-71
2022/01/14 11:58:12;;;;;;;26.48;11.63;;;;;;;24.73;25.28;102709.28;3973762;32;15022116;-71
2022/01/14 12:00:41;;;;;;;22.75;12.35;;;;;;;24.73;25.28;102709.28;4410196;32;20059;-71
2022/01/14 12:06:02;;;;;;;26.08;10.43;;;;;;;25.92;23.60;102701.16;3974022;32;15024057;-71
2022/01/14 12:08:31;;;;;;;15.93;8.68;;;;;;;25.92;23.60;102701.16;4426488;32;20072;-71
2022/01/14 12:32:17;;;;;;;14.25;5.78;;;;;;;26.88;21.80;102681.37;3972711;32;15024068;-70
2022/01/14 12:35:05;;;;;;;13.18;6.15;;;;;;;26.88;21.80;102681.37;4427540;32;20059;-70
2022/01/14 12:37:34;;;;;;;15.73;10.15;;;;;;;26.97;21.49;102660.97;4432792;32;20088;-70
2022/01/14 12:43:04;;;;;;;19.70;6.97;;;;;;;27.93;20.63;102668.06;3972823;32;15022042;-72